עמוד ראשי
תמונות לווין תחזית 15-יוםאקליםתחזית ים סופות טרופיות ברק שדות תעופהשאלות נפוצות עלון אודות
מזג אוויר : אירופה אפריקה אמריקה הצפונית אמריקה הדרומית אסיה אוסטרליה-אוקיאניה אחר
שפות איש קשר

זלצבורג, אוסטריה

קו רוחב: 47-48N, קו אורך: 013-00E, גובה: 430 m


METAR: LOWS 260850Z 15007KT 9999 FEW008 10/07 Q1027 NOSIG
TAF: LOWS 260515Z 2606/2706 15004KT 9999 SCT025 BKN045 TX12/2612Z TN02/2706Z TEMPO 2606/2608 33008KT -RA BECMG 2617/2619 15005KT CAVOK TEMPO 2618/2706 VRB02KT 0400 FG BKN003

זמן: 10:26 (09:26 UTC)

תצפית מזג אוויר נוכחית

הדו"ח נערך לפני 36 דקות, בשעה 08:50 UTC
רוח 7 קשר מכיוון דרום/דרום-מזרח
טמפרטורת 10°C
לחות 82%
לחץ 1027 hPa
ראות 10 קילומטר או יותר
מעט עננים בגובה 800 רגל

שינוי יחידות

תחזית

הדו"ח נערך לפני 4 שעות ו 11 דקות, בשעה 05:15 UTC
תחזית בתוקף מ 26 ב 06 UTC עד 27 ב 06 UTC
רוח 4 קשר מכיוון דרום/דרום-מזרח
ראות 10 קילומטר או יותר
עננים פזורים בגובה 2500 רגל
עננים בינוניים בגובה 4500 רגל
זמנית מ -
26 ב 06 UTC עד 26 ב 08 UTC
רוח 8 קשר מכיוון צפון/צפון-מערב
קל גשם
יעשה מ
26 ב 17 UTC עד 26 ב 19 UTC
רוח 5 קשר מכיוון דרום/דרום-מזרח
ראות 10 קילומטר או יותר
ללא עננים שבסיסם נמוך מ 1500 רגל או קומולונימבוס
זמנית מ -
26 ב 18 UTC עד 27 ב 06 UTC
רוח 2 קשר רוח עם כיוונים משתנים
ראות: 0400 m
עננים בינוניים בגובה 300 רגל
ערפל
המידע באתר זה מותנה של תניית פטור
מזג אוויר : אירופה אפריקה אמריקה הצפונית אמריקה הדרומית אסיה אוסטרליה-אוקיאניה אחר
תמונות לווין תחזית 15-יוםאקליםתחזית ים סופות טרופיות ברק שדות תעופהשאלות נפוצות שפות איש קשר עלון אודות